sensor_id;sensor_type;location;lat;lon;timestamp;pressure;altitude;pressure_sealevel;temperature;humidity
6349;BME280;3207;42.648;23.406;2023-07-24T00:01:14;99820.84;;;25.30;nan
6349;BME280;3207;42.648;23.406;2023-07-24T00:03:40;99821.66;;;25.31;nan
6349;BME280;3207;42.648;23.406;2023-07-24T00:06:09;99816.50;;;25.29;nan
6349;BME280;3207;42.648;23.406;2023-07-24T00:08:35;99810.94;;;25.31;nan
6349;BME280;3207;42.648;23.406;2023-07-24T00:11:02;99815.69;;;25.29;nan
6349;BME280;3207;42.648;23.406;2023-07-24T00:13:30;99807.88;;;25.27;nan
6349;BME280;3207;42.648;23.406;2023-07-24T00:15:57;99814.25;;;25.26;nan
6349;BME280;3207;42.648;23.406;2023-07-24T00:18:24;99811.78;;;25.25;nan
6349;BME280;3207;42.648;23.406;2023-07-24T00:20:51;99803.97;;;25.23;nan
6349;BME280;3207;42.648;23.406;2023-07-24T00:23:19;99805.59;;;25.24;nan
6349;BME280;3207;42.648;23.406;2023-07-24T00:25:46;99815.94;;;25.21;nan
6349;BME280;3207;42.648;23.406;2023-07-24T00:28:12;99808.13;;;25.19;nan
6349;BME280;3207;42.648;23.406;2023-07-24T00:30:39;99813.25;;;25.14;nan
6349;BME280;3207;42.648;23.406;2023-07-24T00:33:06;99823.59;;;25.10;nan
6349;BME280;3207;42.648;23.406;2023-07-24T00:35:33;99818.44;;;25.09;nan
6349;BME280;3207;42.648;23.406;2023-07-24T00:37:59;99816.78;;;25.08;nan
6349;BME280;3207;42.648;23.406;2023-07-24T00:40:27;99818.84;;;25.06;nan
6349;BME280;3207;42.648;23.406;2023-07-24T00:42:54;99816.78;;;25.01;nan
6349;BME280;3207;42.648;23.406;2023-07-24T00:45:21;99820.94;;;24.97;nan
6349;BME280;3207;42.648;23.406;2023-07-24T00:47:49;99813.53;;;24.93;nan
6349;BME280;3207;42.648;23.406;2023-07-24T00:50:16;99807.97;;;24.88;nan
6349;BME280;3207;42.648;23.406;2023-07-24T00:52:43;99808.78;;;24.88;nan
6349;BME280;3207;42.648;23.406;2023-07-24T00:55:11;99817.00;;;24.87;nan
6349;BME280;3207;42.648;23.406;2023-07-24T00:57:40;99819.06;;;24.85;nan
6349;BME280;3207;42.648;23.406;2023-07-24T01:00:08;99803.63;;;24.80;nan
6349;BME280;3207;42.648;23.406;2023-07-24T01:02:35;99800.13;;;24.79;nan
6349;BME280;3207;42.648;23.406;2023-07-24T01:05:04;99798.72;;;24.77;nan
6349;BME280;3207;42.648;23.406;2023-07-24T01:07:31;99788.84;;;24.77;nan
6349;BME280;3207;42.648;23.406;2023-07-24T01:09:58;99788.22;;;24.75;nan
6349;BME280;3207;42.648;23.406;2023-07-24T01:12:29;99794.59;;;24.74;nan
6349;BME280;3207;42.648;23.406;2023-07-24T01:15:03;99789.66;;;24.71;nan
6349;BME280;3207;42.648;23.406;2023-07-24T01:17:35;99784.75;;;24.68;nan
6349;BME280;3207;42.648;23.406;2023-07-24T01:20:08;99793.41;;;24.64;nan
6349;BME280;3207;42.648;23.406;2023-07-24T01:22:39;99785.16;;;24.59;nan
6349;BME280;3207;42.648;23.406;2023-07-24T01:25:18;99785.78;;;24.48;nan
6349;BME280;3207;42.648;23.406;2023-07-24T01:27:51;99789.09;;;24.43;nan
6349;BME280;3207;42.648;23.406;2023-07-24T01:30:18;99791.16;;;24.41;nan
6349;BME280;3207;42.648;23.406;2023-07-24T01:32:45;99790.97;;;24.36;nan
6349;BME280;3207;42.648;23.406;2023-07-24T01:35:12;99786.41;;;24.30;nan
6349;BME280;3207;42.648;23.406;2023-07-24T01:37:40;99781.03;;;24.17;nan
6349;BME280;3207;42.648;23.406;2023-07-24T01:40:09;99777.16;;;24.13;nan
6349;BME280;3207;42.648;23.406;2023-07-24T01:42:37;99786.38;;;24.17;nan
6349;BME280;3207;42.648;23.406;2023-07-24T01:45:07;99776.09;;;24.07;nan
6349;BME280;3207;42.648;23.406;2023-07-24T01:47:34;99770.13;;;24.05;nan
6349;BME280;3207;42.648;23.406;2023-07-24T01:50:01;99776.94;;;24.01;nan
6349;BME280;3207;42.648;23.406;2023-07-24T01:52:27;99781.25;;;24.02;nan
6349;BME280;3207;42.648;23.406;2023-07-24T01:54:54;99765.84;;;24.04;nan
6349;BME280;3207;42.648;23.406;2023-07-24T01:57:21;99768.53;;;24.04;nan
6349;BME280;3207;42.648;23.406;2023-07-24T01:59:48;99771.19;;;24.04;nan
6349;BME280;3207;42.648;23.406;2023-07-24T02:02:16;99762.75;;;24.00;nan
6349;BME280;3207;42.648;23.406;2023-07-24T02:04:43;99769.75;;;24.01;nan
6349;BME280;3207;42.648;23.406;2023-07-24T02:07:10;99769.75;;;24.01;nan
6349;BME280;3207;42.648;23.406;2023-07-24T02:09:36;99763.78;;;23.99;nan
6349;BME280;3207;42.648;23.406;2023-07-24T02:12:04;99765.63;;;23.99;nan
6349;BME280;3207;42.648;23.406;2023-07-24T02:14:31;99765.41;;;24.00;nan
6349;BME280;3207;42.648;23.406;2023-07-24T02:16:58;99765.41;;;24.00;nan
6349;BME280;3207;42.648;23.406;2023-07-24T02:19:26;99770.97;;;23.99;nan
6349;BME280;3207;42.648;23.406;2023-07-24T02:21:53;99763.53;;;23.94;nan
6349;BME280;3207;42.648;23.406;2023-07-24T02:24:19;99764.16;;;23.96;nan
6349;BME280;3207;42.648;23.406;2023-07-24T02:26:46;99762.53;;;23.95;nan
6349;BME280;3207;42.648;23.406;2023-07-24T02:29:13;99766.84;;;23.96;nan
6349;BME280;3207;42.648;23.406;2023-07-24T02:31:40;99765.44;;;23.94;nan
6349;BME280;3207;42.648;23.406;2023-07-24T02:34:07;99760.09;;;23.94;nan
6349;BME280;3207;42.648;23.406;2023-07-24T02:36:35;99767.28;;;23.93;nan
6349;BME280;3207;42.648;23.406;2023-07-24T02:39:02;99758.44;;;23.93;nan
6349;BME280;3207;42.648;23.406;2023-07-24T02:41:28;99761.50;;;23.90;nan
6349;BME280;3207;42.648;23.406;2023-07-24T02:43:55;99752.25;;;23.86;nan
6349;BME280;3207;42.648;23.406;2023-07-24T02:46:22;99751.44;;;23.85;nan
6349;BME280;3207;42.648;23.406;2023-07-24T02:48:50;99747.94;;;23.85;nan
6349;BME280;3207;42.648;23.406;2023-07-24T02:51:17;99755.13;;;23.84;nan
6349;BME280;3207;42.648;23.406;2023-07-24T02:53:45;99752.44;;;23.84;nan
6349;BME280;3207;42.648;23.406;2023-07-24T02:56:11;99754.31;;;23.84;nan
6349;BME280;3207;42.648;23.406;2023-07-24T02:58:38;99755.94;;;23.78;nan
6349;BME280;3207;42.648;23.406;2023-07-24T03:01:06;99747.31;;;23.76;nan
6349;BME280;3207;42.648;23.406;2023-07-24T03:03:33;99745.88;;;23.73;nan
6349;BME280;3207;42.648;23.406;2023-07-24T03:06:01;99744.44;;;23.71;nan
6349;BME280;3207;42.648;23.406;2023-07-24T03:08:28;99750.59;;;23.71;nan
6349;BME280;3207;42.648;23.406;2023-07-24T03:10:56;99742.16;;;23.68;nan
6349;BME280;3207;42.648;23.406;2023-07-24T03:13:23;99743.81;;;23.69;nan
6349;BME280;3207;42.648;23.406;2023-07-24T03:15:53;99749.16;;;23.69;nan
6349;BME280;3207;42.648;23.406;2023-07-24T03:18:20;99741.97;;;23.69;nan
6349;BME280;3207;42.648;23.406;2023-07-24T03:20:47;99739.69;;;23.66;nan
6349;BME280;3207;42.648;23.406;2023-07-24T03:23:14;99731.69;;;23.60;nan
6349;BME280;3207;42.648;23.406;2023-07-24T03:25:41;99732.31;;;23.62;nan
6349;BME280;3207;42.648;23.406;2023-07-24T03:28:09;99740.31;;;23.62;nan
6349;BME280;3207;42.648;23.406;2023-07-24T03:30:36;99736.00;;;23.61;nan
6349;BME280;3207;42.648;23.406;2023-07-24T03:33:03;99738.69;;;23.61;nan
6349;BME280;3207;42.648;23.406;2023-07-24T03:35:31;99723.88;;;23.58;nan
6349;BME280;3207;42.648;23.406;2023-07-24T03:37:58;99729.03;;;23.60;nan
6349;BME280;3207;42.648;23.406;2023-07-24T03:40:25;99734.56;;;23.58;nan
6349;BME280;3207;42.648;23.406;2023-07-24T03:42:52;99735.97;;;23.54;nan
6349;BME280;3207;42.648;23.406;2023-07-24T03:45:20;99735.97;;;23.54;nan
6349;BME280;3207;42.648;23.406;2023-07-24T03:47:47;99731.88;;;23.52;nan
6349;BME280;3207;42.648;23.406;2023-07-24T03:50:13;99728.41;;;23.51;nan
6349;BME280;3207;42.648;23.406;2023-07-24T03:52:40;99721.41;;;23.50;nan
6349;BME280;3207;42.648;23.406;2023-07-24T03:55:08;99722.22;;;23.51;nan
6349;BME280;3207;42.648;23.406;2023-07-24T03:57:35;99730.84;;;23.53;nan
6349;BME280;3207;42.648;23.406;2023-07-24T04:00:03;99725.50;;;23.53;nan
6349;BME280;3207;42.648;23.406;2023-07-24T04:02:31;99728.78;;;23.55;nan
6349;BME280;3207;42.648;23.406;2023-07-24T04:04:58;99726.31;;;23.53;nan
6349;BME280;3207;42.648;23.406;2023-07-24T04:07:25;99727.16;;;23.54;nan
6349;BME280;3207;42.648;23.406;2023-07-24T04:09:51;99724.47;;;23.54;nan
6349;BME280;3207;42.648;23.406;2023-07-24T04:12:18;99729.00;;;23.53;nan
6349;BME280;3207;42.648;23.406;2023-07-24T04:14:45;99732.28;;;23.55;nan
6349;BME280;3207;42.648;23.406;2023-07-24T04:17:14;99727.16;;;23.54;nan
6349;BME280;3207;42.648;23.406;2023-07-24T04:19:42;99737.00;;;23.53;nan
6349;BME280;3207;42.648;23.406;2023-07-24T04:22:09;99740.25;;;23.49;nan
6349;BME280;3207;42.648;23.406;2023-07-24T04:24:36;99739.25;;;23.50;nan
6349;BME280;3207;42.648;23.406;2023-07-24T04:27:03;99737.78;;;23.47;nan
6349;BME280;3207;42.648;23.406;2023-07-24T04:29:30;99750.50;;;23.45;nan
6349;BME280;3207;42.648;23.406;2023-07-24T04:31:56;99744.34;;;23.45;nan
6349;BME280;3207;42.648;23.406;2023-07-24T04:34:23;99745.59;;;23.49;nan
6349;BME280;3207;42.648;23.406;2023-07-24T04:36:51;99746.41;;;23.49;nan
6349;BME280;3207;42.648;23.406;2023-07-24T04:39:18;99737.22;;;23.52;nan
6349;BME280;3207;42.648;23.406;2023-07-24T04:41:45;99742.34;;;23.53;nan
6349;BME280;3207;42.648;23.406;2023-07-24T04:44:11;99744.59;;;23.56;nan
6349;BME280;3207;42.648;23.406;2023-07-24T04:46:38;99744.00;;;23.61;nan
6349;BME280;3207;42.648;23.406;2023-07-24T04:49:05;99744.41;;;23.64;nan
6349;BME280;3207;42.648;23.406;2023-07-24T04:51:32;99746.69;;;23.67;nan
6349;BME280;3207;42.648;23.406;2023-07-24T04:54:00;99722.41;;;23.49;nan
6349;BME280;3207;42.648;23.406;2023-07-24T04:56:27;99753.88;;;23.73;nan
6349;BME280;3207;42.648;23.406;2023-07-24T04:58:53;99751.03;;;23.82;nan
6349;BME280;3207;42.648;23.406;2023-07-24T05:01:20;99746.50;;;23.89;nan
6349;BME280;3207;42.648;23.406;2023-07-24T05:03:47;99738.94;;;23.92;nan
6349;BME280;3207;42.648;23.406;2023-07-24T05:06:14;99738.28;;;23.97;nan
6349;BME280;3207;42.648;23.406;2023-07-24T05:08:40;99730.69;;;24.00;nan
6349;BME280;3207;42.648;23.406;2023-07-24T05:11:09;99733.38;;;24.07;nan
6349;BME280;3207;42.648;23.406;2023-07-24T05:13:35;99724.75;;;24.12;nan
6349;BME280;3207;42.648;23.406;2023-07-24T05:16:02;99730.06;;;24.18;nan
6349;BME280;3207;42.648;23.406;2023-07-24T05:18:29;99725.59;;;24.25;nan
6349;BME280;3207;42.648;23.406;2023-07-24T05:20:56;99721.06;;;24.32;nan
6349;BME280;3207;42.648;23.406;2023-07-24T05:23:23;99712.41;;;24.37;nan
6349;BME280;3207;42.648;23.406;2023-07-24T05:25:56;99710.78;;;24.42;nan
6349;BME280;3207;42.648;23.406;2023-07-24T05:28:25;99711.19;;;24.46;nan
6349;BME280;3207;42.648;23.406;2023-07-24T05:30:52;99707.03;;;24.50;nan
6349;BME280;3207;42.648;23.406;2023-07-24T05:33:19;99705.41;;;24.56;nan
6349;BME280;3207;42.648;23.406;2023-07-24T05:35:46;99696.94;;;24.59;nan
6349;BME280;3207;42.648;23.406;2023-07-24T05:38:12;99711.50;;;24.69;nan
6349;BME280;3207;42.648;23.406;2023-07-24T05:40:39;99704.72;;;24.73;nan
6349;BME280;3207;42.648;23.406;2023-07-24T05:43:06;99696.66;;;24.80;nan
6349;BME280;3207;42.648;23.406;2023-07-24T05:45:34;99699.72;;;24.90;nan
6349;BME280;3207;42.648;23.406;2023-07-24T05:48:01;99710.66;;;24.95;nan
6349;BME280;3207;42.648;23.406;2023-07-24T05:50:28;99709.38;;;25.04;nan
6349;BME280;3207;42.648;23.406;2023-07-24T05:52:54;99709.31;;;25.11;nan
6349;BME280;3207;42.648;23.406;2023-07-24T05:55:21;99711.56;;;25.21;nan
6349;BME280;3207;42.648;23.406;2023-07-24T05:57:48;99724.91;;;25.27;nan
6349;BME280;3207;42.648;23.406;2023-07-24T06:00:15;99716.25;;;25.32;nan
6349;BME280;3207;42.648;23.406;2023-07-24T06:02:43;99712.88;;;25.43;nan
6349;BME280;3207;42.648;23.406;2023-07-24T06:05:10;99723.63;;;25.36;nan
6349;BME280;3207;42.648;23.406;2023-07-24T06:07:37;99730.63;;;25.37;nan
6349;BME280;3207;42.648;23.406;2023-07-24T06:10:04;99728.16;;;25.36;nan
6349;BME280;3207;42.648;23.406;2023-07-24T06:12:31;99723.75;;;25.48;nan
6349;BME280;3207;42.648;23.406;2023-07-24T06:14:58;99723.13;;;25.52;nan
6349;BME280;3207;42.648;23.406;2023-07-24T06:17:25;99723.06;;;25.66;nan
6349;BME280;3207;42.648;23.406;2023-07-24T06:19:53;99722.97;;;25.79;nan
6349;BME280;3207;42.648;23.406;2023-07-24T06:22:20;99726.59;;;25.91;nan
6349;BME280;3207;42.648;23.406;2023-07-24T06:24:46;99725.47;;;26.05;nan
6349;BME280;3207;42.648;23.406;2023-07-24T06:27:13;99718.94;;;26.19;nan
6349;BME280;3207;42.648;23.406;2023-07-24T06:29:40;99719.66;;;26.33;nan
6349;BME280;3207;42.648;23.406;2023-07-24T06:32:07;99713.38;;;26.46;nan
6349;BME280;3207;42.648;23.406;2023-07-24T06:34:34;99712.91;;;26.49;nan
6349;BME280;3207;42.648;23.406;2023-07-24T06:37:03;99715.66;;;26.60;nan
6349;BME280;3207;42.648;23.406;2023-07-24T06:39:29;99713.53;;;26.69;nan
6349;BME280;3207;42.648;23.406;2023-07-24T06:41:56;99703.53;;;26.76;nan
6349;BME280;3207;42.648;23.406;2023-07-24T06:44:23;99708.16;;;26.87;nan
6349;BME280;3207;42.648;23.406;2023-07-24T06:46:50;99719.50;;;26.89;nan
6349;BME280;3207;42.648;23.406;2023-07-24T06:49:17;99723.59;;;26.92;nan
6349;BME280;3207;42.648;23.406;2023-07-24T06:51:44;99718.38;;;26.97;nan
6349;BME280;3207;42.648;23.406;2023-07-24T06:54:12;99711.34;;;27.14;nan
6349;BME280;3207;42.648;23.406;2023-07-24T06:56:39;99723.94;;;27.32;nan
6349;BME280;3207;42.648;23.406;2023-07-24T06:59:06;99715.81;;;27.50;nan
6349;BME280;3207;42.648;23.406;2023-07-24T07:01:32;99718.44;;;27.57;nan
6349;BME280;3207;42.648;23.406;2023-07-24T07:03:59;99707.38;;;27.77;nan
6349;BME280;3207;42.648;23.406;2023-07-24T07:06:26;99708.22;;;27.89;nan
6349;BME280;3207;42.648;23.406;2023-07-24T07:08:53;99714.31;;;27.96;nan
6349;BME280;3207;42.648;23.406;2023-07-24T07:11:21;99708.03;;;28.14;nan
6349;BME280;3207;42.648;23.406;2023-07-24T07:13:48;99707.13;;;28.31;nan
6349;BME280;3207;42.648;23.406;2023-07-24T07:16:14;99714.47;;;28.48;nan
6349;BME280;3207;42.648;23.406;2023-07-24T07:18:42;99708.13;;;28.65;nan
6349;BME280;3207;42.648;23.406;2023-07-24T07:21:09;99686.72;;;28.82;nan
6349;BME280;3207;42.648;23.406;2023-07-24T07:23:36;99683.03;;;29.00;nan
6349;BME280;3207;42.648;23.406;2023-07-24T07:26:02;99672.78;;;29.13;nan
6349;BME280;3207;42.648;23.406;2023-07-24T07:28:30;99679.69;;;29.21;nan
6349;BME280;3207;42.648;23.406;2023-07-24T07:30:57;99674.81;;;29.35;nan
6349;BME280;3207;42.648;23.406;2023-07-24T07:33:24;99670.78;;;29.49;nan
6349;BME280;3207;42.648;23.406;2023-07-24T07:35:51;99664.59;;;29.65;nan
6349;BME280;3207;42.648;23.406;2023-07-24T07:38:18;99680.78;;;29.82;nan
6349;BME280;3207;42.648;23.406;2023-07-24T07:40:44;99667.56;;;29.97;nan
6349;BME280;3207;42.648;23.406;2023-07-24T07:43:11;99666.41;;;30.10;nan
6349;BME280;3207;42.648;23.406;2023-07-24T07:45:39;99667.19;;;30.27;nan
6349;BME280;3207;42.648;23.406;2023-07-24T07:48:06;99675.72;;;30.41;nan
6349;BME280;3207;42.648;23.406;2023-07-24T07:50:33;99679.38;;;30.51;nan
6349;BME280;3207;42.648;23.406;2023-07-24T07:53:00;99686.03;;;30.61;nan
6349;BME280;3207;42.648;23.406;2023-07-24T07:55:26;99678.13;;;30.76;nan
6349;BME280;3207;42.648;23.406;2023-07-24T07:57:53;99682.31;;;30.88;nan
6349;BME280;3207;42.648;23.406;2023-07-24T08:00:20;99675.34;;;30.92;nan
6349;BME280;3207;42.648;23.406;2023-07-24T08:02:48;99672.00;;;31.07;nan
6349;BME280;3207;42.648;23.406;2023-07-24T08:05:15;99665.66;;;31.18;nan
6349;BME280;3207;42.648;23.406;2023-07-24T08:07:42;99664.75;;;31.35;nan
6349;BME280;3207;42.648;23.406;2023-07-24T08:10:09;99659.97;;;31.47;nan
6349;BME280;3207;42.648;23.406;2023-07-24T08:12:36;99654.69;;;31.57;nan
6349;BME280;3207;42.648;23.406;2023-07-24T08:15:04;99639.56;;;31.61;nan
6349;BME280;3207;42.648;23.406;2023-07-24T08:17:31;99647.03;;;31.76;nan
6349;BME280;3207;42.648;23.406;2023-07-24T08:19:59;99644.88;;;31.78;nan
6349;BME280;3207;42.648;23.406;2023-07-24T08:22:26;99653.69;;;32.00;nan
6349;BME280;3207;42.648;23.406;2023-07-24T08:24:53;99661.09;;;32.15;nan
6349;BME280;3207;42.648;23.406;2023-07-24T08:27:20;99660.09;;;32.26;nan
6349;BME280;3207;42.648;23.406;2023-07-24T08:29:50;99663.44;;;32.43;nan
6349;BME280;3207;42.648;23.406;2023-07-24T08:32:17;99658.06;;;32.48;nan
6349;BME280;3207;42.648;23.406;2023-07-24T08:34:44;99657.59;;;32.61;nan
6349;BME280;3207;42.648;23.406;2023-07-24T08:37:12;99666.25;;;32.68;nan
6349;BME280;3207;42.648;23.406;2023-07-24T08:39:39;99680.94;;;32.78;nan
6349;BME280;3207;42.648;23.406;2023-07-24T08:42:10;99669.09;;;32.94;nan
6349;BME280;3207;42.648;23.406;2023-07-24T08:44:38;99668.03;;;33.00;nan
6349;BME280;3207;42.648;23.406;2023-07-24T08:47:06;99672.69;;;33.15;nan
6349;BME280;3207;42.648;23.406;2023-07-24T08:49:37;99664.84;;;33.28;nan
6349;BME280;3207;42.648;23.406;2023-07-24T08:52:06;99665.94;;;33.37;nan
6349;BME280;3207;42.648;23.406;2023-07-24T08:54:35;99646.44;;;33.51;nan
6349;BME280;3207;42.648;23.406;2023-07-24T08:57:04;99640.47;;;33.23;nan
6349;BME280;3207;42.648;23.406;2023-07-24T08:59:32;99633.91;;;33.19;nan
6349;BME280;3207;42.648;23.406;2023-07-24T09:02:00;99626.34;;;33.16;nan
6349;BME280;3207;42.648;23.406;2023-07-24T09:04:27;99625.31;;;33.32;nan
6349;BME280;3207;42.648;23.406;2023-07-24T09:06:56;99618.53;;;33.86;nan
6349;BME280;3207;42.648;23.406;2023-07-24T09:09:23;99607.09;;;34.04;nan
6349;BME280;3207;42.648;23.406;2023-07-24T09:11:52;99607.22;;;34.53;nan
6349;BME280;3207;42.648;23.406;2023-07-24T09:14:23;99615.06;;;35.14;nan
6349;BME280;3207;42.648;23.406;2023-07-24T09:17:01;99615.28;;;35.56;nan
6349;BME280;3207;42.648;23.406;2023-07-24T09:19:28;99605.19;;;35.91;nan
6349;BME280;3207;42.648;23.406;2023-07-24T09:21:55;99600.66;;;36.05;nan
6349;BME280;3207;42.648;23.406;2023-07-24T09:24:22;99597.84;;;36.39;nan
6349;BME280;3207;42.648;23.406;2023-07-24T09:26:51;99590.72;;;36.19;nan
6349;BME280;3207;42.648;23.406;2023-07-24T09:29:19;99594.13;;;36.54;nan
6349;BME280;3207;42.648;23.406;2023-07-24T09:31:46;99587.84;;;36.96;nan
6349;BME280;3207;42.648;23.406;2023-07-24T09:34:16;99586.34;;;37.22;nan
6349;BME280;3207;42.648;23.406;2023-07-24T09:36:43;99573.94;;;36.97;nan
6349;BME280;3207;42.648;23.406;2023-07-24T09:39:10;99551.16;;;36.88;nan
6349;BME280;3207;42.648;23.406;2023-07-24T09:41:38;99565.88;;;37.06;nan
6349;BME280;3207;42.648;23.406;2023-07-24T09:44:07;99583.41;;;37.00;nan
6349;BME280;3207;42.648;23.406;2023-07-24T09:46:34;99598.09;;;36.85;nan
6349;BME280;3207;42.648;23.406;2023-07-24T09:49:00;99584.81;;;36.97;nan
6349;BME280;3207;42.648;23.406;2023-07-24T09:51:29;99564.91;;;36.59;nan
6349;BME280;3207;42.648;23.406;2023-07-24T09:54:01;99558.34;;;36.42;nan
6349;BME280;3207;42.648;23.406;2023-07-24T09:56:32;99547.75;;;36.59;nan
6349;BME280;3207;42.648;23.406;2023-07-24T09:59:02;99538.16;;;36.43;nan
6349;BME280;3207;42.648;23.406;2023-07-24T10:01:31;99539.78;;;36.44;nan
6349;BME280;3207;42.648;23.406;2023-07-24T10:03:59;99547.44;;;36.42;nan
6349;BME280;3207;42.648;23.406;2023-07-24T10:06:27;99547.28;;;36.33;nan
6349;BME280;3207;42.648;23.406;2023-07-24T10:08:55;99535.88;;;35.54;nan
6349;BME280;3207;42.648;23.406;2023-07-24T10:11:23;99542.69;;;35.52;nan
6349;BME280;3207;42.648;23.406;2023-07-24T10:13:51;99533.69;;;35.85;nan
6349;BME280;3207;42.648;23.406;2023-07-24T10:16:19;99537.94;;;36.15;nan
6349;BME280;3207;42.648;23.406;2023-07-24T10:18:48;99535.13;;;36.25;nan
6349;BME280;3207;42.648;23.406;2023-07-24T10:21:14;99540.53;;;36.49;nan
6349;BME280;3207;42.648;23.406;2023-07-24T10:23:42;99554.13;;;36.49;nan
6349;BME280;3207;42.648;23.406;2023-07-24T10:26:10;99545.44;;;36.66;nan
6349;BME280;3207;42.648;23.406;2023-07-24T10:28:38;99540.13;;;36.13;nan
6349;BME280;3207;42.648;23.406;2023-07-24T10:31:06;99534.97;;;36.36;nan
6349;BME280;3207;42.648;23.406;2023-07-24T10:33:35;99530.28;;;36.22;nan
6349;BME280;3207;42.648;23.406;2023-07-24T10:36:06;99524.59;;;36.38;nan
6349;BME280;3207;42.648;23.406;2023-07-24T10:38:36;99514.97;;;36.64;nan
6349;BME280;3207;42.648;23.406;2023-07-24T10:41:04;99500.19;;;36.70;nan
6349;BME280;3207;42.648;23.406;2023-07-24T10:43:40;99499.56;;;36.36;nan
6349;BME280;3207;42.648;23.406;2023-07-24T10:46:07;99514.16;;;36.45;nan
6349;BME280;3207;42.648;23.406;2023-07-24T10:48:34;99512.38;;;36.35;nan
6349;BME280;3207;42.648;23.406;2023-07-24T10:51:08;99520.75;;;36.20;nan
6349;BME280;3207;42.648;23.406;2023-07-24T10:53:36;99515.19;;;36.49;nan
6349;BME280;3207;42.648;23.406;2023-07-24T10:56:04;99521.97;;;36.33;nan
6349;BME280;3207;42.648;23.406;2023-07-24T10:58:31;99511.66;;;36.29;nan
6349;BME280;3207;42.648;23.406;2023-07-24T11:00:58;99506.06;;;36.58;nan
6349;BME280;3207;42.648;23.406;2023-07-24T11:03:26;99509.00;;;36.62;nan
6349;BME280;3207;42.648;23.406;2023-07-24T11:05:54;99495.97;;;36.59;nan
6349;BME280;3207;42.648;23.406;2023-07-24T11:08:22;99479.84;;;36.81;nan
6349;BME280;3207;42.648;23.406;2023-07-24T11:10:50;99478.06;;;36.90;nan
6349;BME280;3207;42.648;23.406;2023-07-24T11:13:19;99482.25;;;37.34;nan
6349;BME280;3207;42.648;23.406;2023-07-24T11:15:48;99471.72;;;37.41;nan
6349;BME280;3207;42.648;23.406;2023-07-24T11:18:15;99471.47;;;37.84;nan
6349;BME280;3207;42.648;23.406;2023-07-24T11:20:45;99470.69;;;38.11;nan
6349;BME280;3207;42.648;23.406;2023-07-24T11:23:12;99467.41;;;38.58;nan
6349;BME280;3207;42.648;23.406;2023-07-24T11:25:41;99450.09;;;38.63;nan
6349;BME280;3207;42.648;23.406;2023-07-24T11:28:09;99445.31;;;38.32;nan
6349;BME280;3207;42.648;23.406;2023-07-24T11:30:36;99473.53;;;38.41;nan
6349;BME280;3207;42.648;23.406;2023-07-24T11:33:06;99480.91;;;38.77;nan
6349;BME280;3207;42.648;23.406;2023-07-24T11:35:33;99498.13;;;39.00;nan
6349;BME280;3207;42.648;23.406;2023-07-24T11:38:01;99513.50;;;39.09;nan
6349;BME280;3207;42.648;23.406;2023-07-24T11:40:32;99507.63;;;39.25;nan
6349;BME280;3207;42.648;23.406;2023-07-24T11:43:01;99499.66;;;38.70;nan
6349;BME280;3207;42.648;23.406;2023-07-24T11:45:29;99483.38;;;38.15;nan
6349;BME280;3207;42.648;23.406;2023-07-24T11:47:55;99457.34;;;37.82;nan
6349;BME280;3207;42.648;23.406;2023-07-24T11:50:23;99459.81;;;38.05;nan
6349;BME280;3207;42.648;23.406;2023-07-24T11:52:51;99456.31;;;38.41;nan
6349;BME280;3207;42.648;23.406;2023-07-24T11:55:20;99466.59;;;38.22;nan
6349;BME280;3207;42.648;23.406;2023-07-24T11:57:56;99474.84;;;37.81;nan
6349;BME280;3207;42.648;23.406;2023-07-24T12:00:25;99470.72;;;37.51;nan
6349;BME280;3207;42.648;23.406;2023-07-24T12:02:52;99479.81;;;37.19;nan
6349;BME280;3207;42.648;23.406;2023-07-24T12:05:19;99481.72;;;37.18;nan
6349;BME280;3207;42.648;23.406;2023-07-24T12:07:46;99453.66;;;36.99;nan
6349;BME280;3207;42.648;23.406;2023-07-24T12:10:24;99449.66;;;36.59;nan
6349;BME280;3207;42.648;23.406;2023-07-24T12:12:50;99450.50;;;36.41;nan
6349;BME280;3207;42.648;23.406;2023-07-24T12:15:17;99417.13;;;36.49;nan
6349;BME280;3207;42.648;23.406;2023-07-24T12:17:46;99406.41;;;36.39;nan
6349;BME280;3207;42.648;23.406;2023-07-24T12:20:12;99396.59;;;36.38;nan
6349;BME280;3207;42.648;23.406;2023-07-24T12:22:39;99401.63;;;36.30;nan
6349;BME280;3207;42.648;23.406;2023-07-24T12:25:06;99410.88;;;36.11;nan
6349;BME280;3207;42.648;23.406;2023-07-24T12:27:33;99420.00;;;36.20;nan
6349;BME280;3207;42.648;23.406;2023-07-24T12:30:00;99420.16;;;36.47;nan
6349;BME280;3207;42.648;23.406;2023-07-24T12:32:28;99434.53;;;36.66;nan
6349;BME280;3207;42.648;23.406;2023-07-24T12:34:56;99440.88;;;36.81;nan
6349;BME280;3207;42.648;23.406;2023-07-24T12:37:23;99448.66;;;36.87;nan
6349;BME280;3207;42.648;23.406;2023-07-24T12:39:50;99445.81;;;36.79;nan
6349;BME280;3207;42.648;23.406;2023-07-24T12:42:17;99448.78;;;36.82;nan
6349;BME280;3207;42.648;23.406;2023-07-24T12:44:44;99457.81;;;36.96;nan
6349;BME280;3207;42.648;23.406;2023-07-24T12:47:11;99444.19;;;36.96;nan
6349;BME280;3207;42.648;23.406;2023-07-24T12:49:38;99453.47;;;37.09;nan
6349;BME280;3207;42.648;23.406;2023-07-24T12:52:07;99449.63;;;37.43;nan
6349;BME280;3207;42.648;23.406;2023-07-24T12:54:34;99418.28;;;37.40;nan
6349;BME280;3207;42.648;23.406;2023-07-24T12:57:01;99405.22;;;37.10;nan
6349;BME280;3207;42.648;23.406;2023-07-24T12:59:28;99408.09;;;36.67;nan
6349;BME280;3207;42.648;23.406;2023-07-24T13:01:55;99408.88;;;36.16;nan
6349;BME280;3207;42.648;23.406;2023-07-24T13:04:22;99410.16;;;36.24;nan
6349;BME280;3207;42.648;23.406;2023-07-24T13:06:49;99397.53;;;36.47;nan
6349;BME280;3207;42.648;23.406;2023-07-24T13:09:17;99378.00;;;36.26;nan
6349;BME280;3207;42.648;23.406;2023-07-24T13:11:44;99351.09;;;35.63;nan
6349;BME280;3207;42.648;23.406;2023-07-24T13:14:13;99339.13;;;35.83;nan
6349;BME280;3207;42.648;23.406;2023-07-24T13:16:39;99340.69;;;35.89;nan
6349;BME280;3207;42.648;23.406;2023-07-24T13:19:06;99348.66;;;35.62;nan
6349;BME280;3207;42.648;23.406;2023-07-24T13:21:33;99344.97;;;35.52;nan
6349;BME280;3207;42.648;23.406;2023-07-24T13:24:00;99347.38;;;35.78;nan
6349;BME280;3207;42.648;23.406;2023-07-24T13:26:28;99342.69;;;36.02;nan
6349;BME280;3207;42.648;23.406;2023-07-24T13:28:55;99345.69;;;36.38;nan
6349;BME280;3207;42.648;23.406;2023-07-24T13:31:21;99359.75;;;36.91;nan
6349;BME280;3207;42.648;23.406;2023-07-24T13:33:48;99359.19;;;37.35;nan